sensor_id;sensor_type;location;lat;lon;timestamp;temperature;humidity
12815;DHT22;6472;52.328;13.070;2023-09-07T00:01:24;13.20;99.90
12815;DHT22;6472;52.328;13.070;2023-09-07T00:03:53;13.30;99.90
12815;DHT22;6472;52.328;13.070;2023-09-07T00:06:21;13.20;99.90
12815;DHT22;6472;52.328;13.070;2023-09-07T00:08:49;13.20;99.90
12815;DHT22;6472;52.328;13.070;2023-09-07T00:11:17;13.20;99.90
12815;DHT22;6472;52.328;13.070;2023-09-07T00:13:45;13.20;99.90
12815;DHT22;6472;52.328;13.070;2023-09-07T00:16:13;13.20;99.90
12815;DHT22;6472;52.328;13.070;2023-09-07T00:18:43;13.10;99.90
12815;DHT22;6472;52.328;13.070;2023-09-07T00:21:11;13.10;99.90
12815;DHT22;6472;52.328;13.070;2023-09-07T00:23:39;13.10;99.90
12815;DHT22;6472;52.328;13.070;2023-09-07T00:26:07;13.10;99.90
12815;DHT22;6472;52.328;13.070;2023-09-07T00:28:35;13.10;99.90
12815;DHT22;6472;52.328;13.070;2023-09-07T00:31:03;13.10;99.90
12815;DHT22;6472;52.328;13.070;2023-09-07T00:33:31;13.00;99.90
12815;DHT22;6472;52.328;13.070;2023-09-07T00:36:03;13.00;99.90
12815;DHT22;6472;52.328;13.070;2023-09-07T00:38:31;13.10;99.90
12815;DHT22;6472;52.328;13.070;2023-09-07T00:40:59;13.10;99.90
12815;DHT22;6472;52.328;13.070;2023-09-07T00:43:27;13.00;99.90
12815;DHT22;6472;52.328;13.070;2023-09-07T00:45:55;13.10;99.90
12815;DHT22;6472;52.328;13.070;2023-09-07T00:48:23;13.10;99.90
12815;DHT22;6472;52.328;13.070;2023-09-07T00:50:52;13.00;99.90
12815;DHT22;6472;52.328;13.070;2023-09-07T00:53:21;13.00;99.90
12815;DHT22;6472;52.328;13.070;2023-09-07T00:55:51;13.00;99.90
12815;DHT22;6472;52.328;13.070;2023-09-07T00:58:19;13.00;99.90
12815;DHT22;6472;52.328;13.070;2023-09-07T01:00:47;13.00;99.90
12815;DHT22;6472;52.328;13.070;2023-09-07T01:03:15;12.90;99.90
12815;DHT22;6472;52.328;13.070;2023-09-07T01:05:47;13.00;99.90
12815;DHT22;6472;52.328;13.070;2023-09-07T01:08:25;12.90;99.90
12815;DHT22;6472;52.328;13.070;2023-09-07T01:10:54;12.90;99.90
12815;DHT22;6472;52.328;13.070;2023-09-07T01:13:22;12.90;99.90
12815;DHT22;6472;52.328;13.070;2023-09-07T01:15:50;13.00;99.90
12815;DHT22;6472;52.328;13.070;2023-09-07T01:18:19;12.90;99.90
12815;DHT22;6472;52.328;13.070;2023-09-07T01:21:05;12.90;99.90
12815;DHT22;6472;52.328;13.070;2023-09-07T01:23:36;12.90;99.90
12815;DHT22;6472;52.328;13.070;2023-09-07T01:26:07;12.90;99.90
12815;DHT22;6472;52.328;13.070;2023-09-07T01:28:35;13.00;99.90
12815;DHT22;6472;52.328;13.070;2023-09-07T01:31:04;12.90;99.90
12815;DHT22;6472;52.328;13.070;2023-09-07T01:33:33;13.00;99.90
12815;DHT22;6472;52.328;13.070;2023-09-07T01:36:01;12.90;99.90
12815;DHT22;6472;52.328;13.070;2023-09-07T01:38:29;13.00;99.90
12815;DHT22;6472;52.328;13.070;2023-09-07T01:40:59;13.00;99.90
12815;DHT22;6472;52.328;13.070;2023-09-07T01:43:27;13.00;99.90
12815;DHT22;6472;52.328;13.070;2023-09-07T01:45:55;13.00;99.90
12815;DHT22;6472;52.328;13.070;2023-09-07T01:48:23;12.90;99.90
12815;DHT22;6472;52.328;13.070;2023-09-07T01:50:52;13.00;99.90
12815;DHT22;6472;52.328;13.070;2023-09-07T01:53:20;13.00;99.90
12815;DHT22;6472;52.328;13.070;2023-09-07T01:55:48;13.10;99.90
12815;DHT22;6472;52.328;13.070;2023-09-07T01:58:17;13.00;99.90
12815;DHT22;6472;52.328;13.070;2023-09-07T02:00:46;13.00;99.90
12815;DHT22;6472;52.328;13.070;2023-09-07T02:03:14;13.00;99.90
12815;DHT22;6472;52.328;13.070;2023-09-07T02:05:45;12.90;99.90
12815;DHT22;6472;52.328;13.070;2023-09-07T02:08:13;12.90;99.90
12815;DHT22;6472;52.328;13.070;2023-09-07T02:10:41;12.90;99.90
12815;DHT22;6472;52.328;13.070;2023-09-07T02:13:09;12.90;99.90
12815;DHT22;6472;52.328;13.070;2023-09-07T02:15:39;12.90;99.90
12815;DHT22;6472;52.328;13.070;2023-09-07T02:18:08;12.80;99.90
12815;DHT22;6472;52.328;13.070;2023-09-07T02:20:35;12.80;99.90
12815;DHT22;6472;52.328;13.070;2023-09-07T02:23:03;12.80;99.90
12815;DHT22;6472;52.328;13.070;2023-09-07T02:25:32;12.80;99.90
12815;DHT22;6472;52.328;13.070;2023-09-07T02:28:01;12.80;99.90
12815;DHT22;6472;52.328;13.070;2023-09-07T02:30:29;12.70;99.90
12815;DHT22;6472;52.328;13.070;2023-09-07T02:32:58;12.70;99.90
12815;DHT22;6472;52.328;13.070;2023-09-07T02:35:26;12.70;99.90
12815;DHT22;6472;52.328;13.070;2023-09-07T02:37:55;12.60;99.90
12815;DHT22;6472;52.328;13.070;2023-09-07T02:40:23;12.60;99.90
12815;DHT22;6472;52.328;13.070;2023-09-07T02:42:51;12.60;99.90
12815;DHT22;6472;52.328;13.070;2023-09-07T02:45:18;12.60;99.90
12815;DHT22;6472;52.328;13.070;2023-09-07T02:47:47;12.60;99.90
12815;DHT22;6472;52.328;13.070;2023-09-07T02:50:19;12.60;99.90
12815;DHT22;6472;52.328;13.070;2023-09-07T02:52:47;12.60;99.90
12815;DHT22;6472;52.328;13.070;2023-09-07T02:55:15;12.70;99.90
12815;DHT22;6472;52.328;13.070;2023-09-07T02:57:43;12.70;99.90
12815;DHT22;6472;52.328;13.070;2023-09-07T03:00:11;12.70;99.90
12815;DHT22;6472;52.328;13.070;2023-09-07T03:02:39;12.70;99.90
12815;DHT22;6472;52.328;13.070;2023-09-07T03:05:08;12.70;99.90
12815;DHT22;6472;52.328;13.070;2023-09-07T03:07:38;12.70;99.90
12815;DHT22;6472;52.328;13.070;2023-09-07T03:10:06;12.70;99.90
12815;DHT22;6472;52.328;13.070;2023-09-07T03:12:35;12.70;99.90
12815;DHT22;6472;52.328;13.070;2023-09-07T03:15:03;12.70;99.90
12815;DHT22;6472;52.328;13.070;2023-09-07T03:17:32;12.70;99.90
12815;DHT22;6472;52.328;13.070;2023-09-07T03:20:00;12.70;99.90
12815;DHT22;6472;52.328;13.070;2023-09-07T03:22:32;12.70;99.90
12815;DHT22;6472;52.328;13.070;2023-09-07T03:25:01;12.60;99.90
12815;DHT22;6472;52.328;13.070;2023-09-07T03:27:29;12.60;99.90
12815;DHT22;6472;52.328;13.070;2023-09-07T03:29:57;12.60;99.90
12815;DHT22;6472;52.328;13.070;2023-09-07T03:32:26;12.60;99.90
12815;DHT22;6472;52.328;13.070;2023-09-07T03:34:59;12.60;99.90
12815;DHT22;6472;52.328;13.070;2023-09-07T03:37:27;12.60;99.90
12815;DHT22;6472;52.328;13.070;2023-09-07T03:39:55;12.50;99.90
12815;DHT22;6472;52.328;13.070;2023-09-07T03:42:25;12.50;99.90
12815;DHT22;6472;52.328;13.070;2023-09-07T03:44:53;12.50;99.90
12815;DHT22;6472;52.328;13.070;2023-09-07T03:47:22;12.50;99.90
12815;DHT22;6472;52.328;13.070;2023-09-07T03:49:56;12.50;99.90
12815;DHT22;6472;52.328;13.070;2023-09-07T03:52:26;12.50;99.90
12815;DHT22;6472;52.328;13.070;2023-09-07T03:54:54;12.50;99.90
12815;DHT22;6472;52.328;13.070;2023-09-07T03:57:25;12.50;99.90
12815;DHT22;6472;52.328;13.070;2023-09-07T03:59:53;12.40;99.90
12815;DHT22;6472;52.328;13.070;2023-09-07T04:02:22;12.40;99.90
12815;DHT22;6472;52.328;13.070;2023-09-07T04:04:51;12.40;99.90
12815;DHT22;6472;52.328;13.070;2023-09-07T04:07:19;12.30;99.90
12815;DHT22;6472;52.328;13.070;2023-09-07T04:09:47;12.30;99.90
12815;DHT22;6472;52.328;13.070;2023-09-07T04:12:15;12.30;99.90
12815;DHT22;6472;52.328;13.070;2023-09-07T04:14:45;12.20;99.90
12815;DHT22;6472;52.328;13.070;2023-09-07T04:17:13;12.20;99.90
12815;DHT22;6472;52.328;13.070;2023-09-07T04:19:41;12.20;99.90
12815;DHT22;6472;52.328;13.070;2023-09-07T04:22:10;12.20;99.90
12815;DHT22;6472;52.328;13.070;2023-09-07T04:24:39;12.10;99.90
12815;DHT22;6472;52.328;13.070;2023-09-07T04:27:07;12.10;99.90
12815;DHT22;6472;52.328;13.070;2023-09-07T04:29:35;12.10;99.90
12815;DHT22;6472;52.328;13.070;2023-09-07T04:32:05;12.10;99.90
12815;DHT22;6472;52.328;13.070;2023-09-07T04:34:33;12.10;99.90
12815;DHT22;6472;52.328;13.070;2023-09-07T04:37:01;12.10;99.90
12815;DHT22;6472;52.328;13.070;2023-09-07T04:39:29;12.00;99.90
12815;DHT22;6472;52.328;13.070;2023-09-07T04:41:57;12.00;99.90
12815;DHT22;6472;52.328;13.070;2023-09-07T04:44:26;12.00;99.90
12815;DHT22;6472;52.328;13.070;2023-09-07T04:46:55;12.00;99.90
12815;DHT22;6472;52.328;13.070;2023-09-07T04:49:24;12.10;99.90
12815;DHT22;6472;52.328;13.070;2023-09-07T04:51:53;12.10;99.90
12815;DHT22;6472;52.328;13.070;2023-09-07T04:54:21;12.10;99.90
12815;DHT22;6472;52.328;13.070;2023-09-07T04:56:49;12.10;99.90
12815;DHT22;6472;52.328;13.070;2023-09-07T04:59:17;12.10;99.90
12815;DHT22;6472;52.328;13.070;2023-09-07T05:01:45;12.20;99.90
12815;DHT22;6472;52.328;13.070;2023-09-07T05:04:13;12.20;99.90
12815;DHT22;6472;52.328;13.070;2023-09-07T05:06:42;12.30;99.90
12815;DHT22;6472;52.328;13.070;2023-09-07T05:09:10;12.30;99.90
12815;DHT22;6472;52.328;13.070;2023-09-07T05:11:39;12.40;99.90
12815;DHT22;6472;52.328;13.070;2023-09-07T05:14:07;12.50;99.90
12815;DHT22;6472;52.328;13.070;2023-09-07T05:16:35;12.60;99.90
12815;DHT22;6472;52.328;13.070;2023-09-07T05:19:03;12.70;99.90
12815;DHT22;6472;52.328;13.070;2023-09-07T05:21:31;12.80;99.90
12815;DHT22;6472;52.328;13.070;2023-09-07T05:24:00;12.90;99.90
12815;DHT22;6472;52.328;13.070;2023-09-07T05:26:28;13.10;99.90
12815;DHT22;6472;52.328;13.070;2023-09-07T05:28:56;13.20;99.90
12815;DHT22;6472;52.328;13.070;2023-09-07T05:31:24;13.30;99.90
12815;DHT22;6472;52.328;13.070;2023-09-07T05:33:52;13.70;99.90
12815;DHT22;6472;52.328;13.070;2023-09-07T05:36:20;14.50;99.90
12815;DHT22;6472;52.328;13.070;2023-09-07T05:38:48;14.60;99.90
12815;DHT22;6472;52.328;13.070;2023-09-07T05:41:18;14.40;99.90
12815;DHT22;6472;52.328;13.070;2023-09-07T05:43:46;14.40;99.90
12815;DHT22;6472;52.328;13.070;2023-09-07T05:46:15;14.50;99.90
12815;DHT22;6472;52.328;13.070;2023-09-07T05:48:43;14.60;99.90
12815;DHT22;6472;52.328;13.070;2023-09-07T05:51:11;14.60;99.90
12815;DHT22;6472;52.328;13.070;2023-09-07T05:53:39;14.70;99.90
12815;DHT22;6472;52.328;13.070;2023-09-07T05:56:07;14.90;99.90
12815;DHT22;6472;52.328;13.070;2023-09-07T05:58:37;14.90;99.90
12815;DHT22;6472;52.328;13.070;2023-09-07T06:01:05;15.00;99.90
12815;DHT22;6472;52.328;13.070;2023-09-07T06:03:33;15.10;99.90
12815;DHT22;6472;52.328;13.070;2023-09-07T06:06:02;15.30;99.90
12815;DHT22;6472;52.328;13.070;2023-09-07T06:08:30;15.50;99.90
12815;DHT22;6472;52.328;13.070;2023-09-07T06:10:58;15.70;99.90
12815;DHT22;6472;52.328;13.070;2023-09-07T06:13:26;15.80;99.90
12815;DHT22;6472;52.328;13.070;2023-09-07T06:15:56;16.00;99.90
12815;DHT22;6472;52.328;13.070;2023-09-07T06:18:27;16.10;99.90
12815;DHT22;6472;52.328;13.070;2023-09-07T06:20:55;16.20;99.90
12815;DHT22;6472;52.328;13.070;2023-09-07T06:23:23;16.30;99.90
12815;DHT22;6472;52.328;13.070;2023-09-07T06:25:51;16.40;99.90
12815;DHT22;6472;52.328;13.070;2023-09-07T06:28:19;16.50;99.90
12815;DHT22;6472;52.328;13.070;2023-09-07T06:30:47;16.70;99.90
12815;DHT22;6472;52.328;13.070;2023-09-07T06:33:17;16.80;99.90
12815;DHT22;6472;52.328;13.070;2023-09-07T06:35:45;16.90;99.90
12815;DHT22;6472;52.328;13.070;2023-09-07T06:38:13;17.10;99.90
12815;DHT22;6472;52.328;13.070;2023-09-07T06:40:41;17.20;99.90
12815;DHT22;6472;52.328;13.070;2023-09-07T06:43:14;17.30;99.90
12815;DHT22;6472;52.328;13.070;2023-09-07T06:45:43;17.50;99.90
12815;DHT22;6472;52.328;13.070;2023-09-07T06:48:10;17.70;99.90
12815;DHT22;6472;52.328;13.070;2023-09-07T06:50:40;17.80;99.90
12815;DHT22;6472;52.328;13.070;2023-09-07T06:53:08;18.00;99.90
12815;DHT22;6472;52.328;13.070;2023-09-07T06:55:36;18.10;99.90
12815;DHT22;6472;52.328;13.070;2023-09-07T06:58:04;18.30;99.90
12815;DHT22;6472;52.328;13.070;2023-09-07T07:00:32;18.50;99.90
12815;DHT22;6472;52.328;13.070;2023-09-07T07:03:00;18.70;99.90
12815;DHT22;6472;52.328;13.070;2023-09-07T07:05:28;18.80;99.90
12815;DHT22;6472;52.328;13.070;2023-09-07T07:07:58;18.90;99.90
12815;DHT22;6472;52.328;13.070;2023-09-07T07:10:26;19.00;99.90
12815;DHT22;6472;52.328;13.070;2023-09-07T07:12:54;19.20;99.90
12815;DHT22;6472;52.328;13.070;2023-09-07T07:15:22;19.30;99.90
12815;DHT22;6472;52.328;13.070;2023-09-07T07:17:50;19.50;99.90
12815;DHT22;6472;52.328;13.070;2023-09-07T07:20:18;19.70;99.90
12815;DHT22;6472;52.328;13.070;2023-09-07T07:22:46;20.00;99.90
12815;DHT22;6472;52.328;13.070;2023-09-07T07:25:16;20.10;99.90
12815;DHT22;6472;52.328;13.070;2023-09-07T07:27:44;20.40;99.90
12815;DHT22;6472;52.328;13.070;2023-09-07T07:30:14;20.60;99.90
12815;DHT22;6472;52.328;13.070;2023-09-07T07:32:42;20.70;99.90
12815;DHT22;6472;52.328;13.070;2023-09-07T07:35:10;21.00;99.90
12815;DHT22;6472;52.328;13.070;2023-09-07T07:37:38;21.10;99.90
12815;DHT22;6472;52.328;13.070;2023-09-07T07:40:07;21.40;99.90
12815;DHT22;6472;52.328;13.070;2023-09-07T07:42:36;21.50;99.90
12815;DHT22;6472;52.328;13.070;2023-09-07T07:45:05;21.70;99.90
12815;DHT22;6472;52.328;13.070;2023-09-07T07:47:33;21.90;99.90
12815;DHT22;6472;52.328;13.070;2023-09-07T07:50:01;22.00;99.90
12815;DHT22;6472;52.328;13.070;2023-09-07T07:52:29;22.10;99.90
12815;DHT22;6472;52.328;13.070;2023-09-07T07:54:58;22.30;99.90
12815;DHT22;6472;52.328;13.070;2023-09-07T07:57:26;22.60;99.90
12815;DHT22;6472;52.328;13.070;2023-09-07T07:59:55;22.80;99.90
12815;DHT22;6472;52.328;13.070;2023-09-07T08:02:24;23.00;99.90
12815;DHT22;6472;52.328;13.070;2023-09-07T08:04:52;23.10;99.90
12815;DHT22;6472;52.328;13.070;2023-09-07T08:07:20;23.20;99.90
12815;DHT22;6472;52.328;13.070;2023-09-07T08:09:48;23.40;99.90
12815;DHT22;6472;52.328;13.070;2023-09-07T08:12:17;23.50;99.90
12815;DHT22;6472;52.328;13.070;2023-09-07T08:14:45;23.80;99.90
12815;DHT22;6472;52.328;13.070;2023-09-07T08:17:14;24.10;99.90
12815;DHT22;6472;52.328;13.070;2023-09-07T08:19:43;24.20;99.90
12815;DHT22;6472;52.328;13.070;2023-09-07T08:22:11;24.40;99.90
12815;DHT22;6472;52.328;13.070;2023-09-07T08:24:39;24.60;99.90
12815;DHT22;6472;52.328;13.070;2023-09-07T08:27:09;24.70;99.90
12815;DHT22;6472;52.328;13.070;2023-09-07T08:29:38;24.90;99.90
12815;DHT22;6472;52.328;13.070;2023-09-07T08:32:06;25.10;99.90
12815;DHT22;6472;52.328;13.070;2023-09-07T08:34:36;25.30;99.90
12815;DHT22;6472;52.328;13.070;2023-09-07T08:37:07;25.10;99.90
12815;DHT22;6472;52.328;13.070;2023-09-07T08:39:35;25.30;99.90
12815;DHT22;6472;52.328;13.070;2023-09-07T08:42:06;25.50;99.90
12815;DHT22;6472;52.328;13.070;2023-09-07T08:44:37;25.50;99.90
12815;DHT22;6472;52.328;13.070;2023-09-07T08:47:05;25.70;99.90
12815;DHT22;6472;52.328;13.070;2023-09-07T08:49:36;25.80;99.90
12815;DHT22;6472;52.328;13.070;2023-09-07T08:52:04;25.90;99.90
12815;DHT22;6472;52.328;13.070;2023-09-07T08:54:34;26.00;98.50
12815;DHT22;6472;52.328;13.070;2023-09-07T08:57:04;26.00;96.90
12815;DHT22;6472;52.328;13.070;2023-09-07T08:59:32;26.20;95.70
12815;DHT22;6472;52.328;13.070;2023-09-07T09:02:00;26.20;96.40
12815;DHT22;6472;52.328;13.070;2023-09-07T09:04:31;26.30;94.70
12815;DHT22;6472;52.328;13.070;2023-09-07T09:07:02;26.30;95.50
12815;DHT22;6472;52.328;13.070;2023-09-07T09:09:30;26.40;92.50
12815;DHT22;6472;52.328;13.070;2023-09-07T09:12:06;26.40;94.40
12815;DHT22;6472;52.328;13.070;2023-09-07T09:14:35;26.40;91.70
12815;DHT22;6472;52.328;13.070;2023-09-07T09:17:03;26.40;91.40
12815;DHT22;6472;52.328;13.070;2023-09-07T09:19:31;26.40;92.00
12815;DHT22;6472;52.328;13.070;2023-09-07T09:22:01;26.40;90.40
12815;DHT22;6472;52.328;13.070;2023-09-07T09:24:32;26.40;92.60
12815;DHT22;6472;52.328;13.070;2023-09-07T09:27:01;26.50;91.20
12815;DHT22;6472;52.328;13.070;2023-09-07T09:29:29;26.60;90.40
12815;DHT22;6472;52.328;13.070;2023-09-07T09:31:57;26.60;89.30
12815;DHT22;6472;52.328;13.070;2023-09-07T09:34:25;26.60;88.00
12815;DHT22;6472;52.328;13.070;2023-09-07T09:36:53;26.60;84.70
12815;DHT22;6472;52.328;13.070;2023-09-07T09:39:24;26.60;85.00
12815;DHT22;6472;52.328;13.070;2023-09-07T09:41:52;26.60;85.00
12815;DHT22;6472;52.328;13.070;2023-09-07T09:44:23;26.50;85.60
12815;DHT22;6472;52.328;13.070;2023-09-07T09:46:53;26.50;83.50
12815;DHT22;6472;52.328;13.070;2023-09-07T09:49:22;26.40;85.90
12815;DHT22;6472;52.328;13.070;2023-09-07T09:51:53;26.30;86.20
12815;DHT22;6472;52.328;13.070;2023-09-07T09:54:24;26.20;87.60
12815;DHT22;6472;52.328;13.070;2023-09-07T09:56:54;26.20;85.50
12815;DHT22;6472;52.328;13.070;2023-09-07T09:59:29;26.30;84.10
12815;DHT22;6472;52.328;13.070;2023-09-07T10:02:01;26.30;85.70
12815;DHT22;6472;52.328;13.070;2023-09-07T10:04:30;26.40;83.60
12815;DHT22;6472;52.328;13.070;2023-09-07T10:07:00;26.50;86.30
12815;DHT22;6472;52.328;13.070;2023-09-07T10:09:34;26.50;82.70
12815;DHT22;6472;52.328;13.070;2023-09-07T10:12:04;26.50;81.60
12815;DHT22;6472;52.328;13.070;2023-09-07T10:14:38;26.50;86.00
12815;DHT22;6472;52.328;13.070;2023-09-07T10:17:07;26.50;83.30
12815;DHT22;6472;52.328;13.070;2023-09-07T10:19:36;26.50;86.00
12815;DHT22;6472;52.328;13.070;2023-09-07T10:22:06;26.60;81.60
12815;DHT22;6472;52.328;13.070;2023-09-07T10:24:36;26.70;80.30
12815;DHT22;6472;52.328;13.070;2023-09-07T10:27:06;26.60;79.90
12815;DHT22;6472;52.328;13.070;2023-09-07T10:29:41;26.60;80.40
12815;DHT22;6472;52.328;13.070;2023-09-07T10:32:10;26.60;80.50
12815;DHT22;6472;52.328;13.070;2023-09-07T10:34:41;26.60;80.60
12815;DHT22;6472;52.328;13.070;2023-09-07T10:37:10;26.60;81.00
12815;DHT22;6472;52.328;13.070;2023-09-07T10:39:42;26.50;79.70
12815;DHT22;6472;52.328;13.070;2023-09-07T10:42:20;26.50;80.40
12815;DHT22;6472;52.328;13.070;2023-09-07T10:44:48;26.50;79.90
12815;DHT22;6472;52.328;13.070;2023-09-07T10:47:16;26.50;79.60
12815;DHT22;6472;52.328;13.070;2023-09-07T10:49:44;26.60;80.20
12815;DHT22;6472;52.328;13.070;2023-09-07T10:52:13;26.60;75.40
12815;DHT22;6472;52.328;13.070;2023-09-07T10:54:42;26.70;74.30
12815;DHT22;6472;52.328;13.070;2023-09-07T10:57:11;26.70;75.70
12815;DHT22;6472;52.328;13.070;2023-09-07T10:59:44;26.70;71.90
12815;DHT22;6472;52.328;13.070;2023-09-07T11:02:12;26.70;72.70
12815;DHT22;6472;52.328;13.070;2023-09-07T11:04:42;26.60;71.60
12815;DHT22;6472;52.328;13.070;2023-09-07T11:07:11;26.60;72.60
12815;DHT22;6472;52.328;13.070;2023-09-07T11:09:41;26.70;72.90
12815;DHT22;6472;52.328;13.070;2023-09-07T11:12:12;26.70;72.40
12815;DHT22;6472;52.328;13.070;2023-09-07T11:14:40;26.60;72.10
12815;DHT22;6472;52.328;13.070;2023-09-07T11:17:08;26.60;73.40
12815;DHT22;6472;52.328;13.070;2023-09-07T11:19:37;26.70;69.90
12815;DHT22;6472;52.328;13.070;2023-09-07T11:22:05;26.70;69.70
12815;DHT22;6472;52.328;13.070;2023-09-07T11:24:34;26.80;70.30
12815;DHT22;6472;52.328;13.070;2023-09-07T11:27:04;26.70;68.80
12815;DHT22;6472;52.328;13.070;2023-09-07T11:29:32;26.80;68.80
12815;DHT22;6472;52.328;13.070;2023-09-07T11:32:07;26.70;68.90
12815;DHT22;6472;52.328;13.070;2023-09-07T11:34:46;26.70;68.80
12815;DHT22;6472;52.328;13.070;2023-09-07T11:37:15;26.70;69.40
12815;DHT22;6472;52.328;13.070;2023-09-07T11:39:44;26.80;66.80
12815;DHT22;6472;52.328;13.070;2023-09-07T11:42:13;26.80;68.20
12815;DHT22;6472;52.328;13.070;2023-09-07T11:44:41;26.80;66.70
12815;DHT22;6472;52.328;13.070;2023-09-07T11:47:09;26.90;67.50
12815;DHT22;6472;52.328;13.070;2023-09-07T11:49:37;27.00;65.00
12815;DHT22;6472;52.328;13.070;2023-09-07T11:52:06;27.10;64.20
12815;DHT22;6472;52.328;13.070;2023-09-07T11:54:34;27.20;66.10
12815;DHT22;6472;52.328;13.070;2023-09-07T11:57:02;27.10;65.60
12815;DHT22;6472;52.328;13.070;2023-09-07T11:59:31;27.20;65.70
12815;DHT22;6472;52.328;13.070;2023-09-07T12:02:18;27.20;69.20
12815;DHT22;6472;52.328;13.070;2023-09-07T12:04:48;27.30;67.90
12815;DHT22;6472;52.328;13.070;2023-09-07T12:07:16;27.40;66.20
12815;DHT22;6472;52.328;13.070;2023-09-07T12:09:44;27.50;68.60
12815;DHT22;6472;52.328;13.070;2023-09-07T12:12:12;27.60;67.50
12815;DHT22;6472;52.328;13.070;2023-09-07T12:14:42;27.70;66.50
12815;DHT22;6472;52.328;13.070;2023-09-07T12:17:10;27.70;66.40
12815;DHT22;6472;52.328;13.070;2023-09-07T12:19:38;27.80;64.30
12815;DHT22;6472;52.328;13.070;2023-09-07T12:22:08;27.60;64.60
12815;DHT22;6472;52.328;13.070;2023-09-07T12:24:36;27.60;65.40
12815;DHT22;6472;52.328;13.070;2023-09-07T12:27:04;27.70;65.50
12815;DHT22;6472;52.328;13.070;2023-09-07T12:29:32;27.80;64.00
12815;DHT22;6472;52.328;13.070;2023-09-07T12:32:02;27.90;65.00
12815;DHT22;6472;52.328;13.070;2023-09-07T12:34:30;27.90;64.10
12815;DHT22;6472;52.328;13.070;2023-09-07T12:36:58;28.00;65.10
12815;DHT22;6472;52.328;13.070;2023-09-07T12:39:26;28.00;64.80
12815;DHT22;6472;52.328;13.070;2023-09-07T12:41:55;28.00;63.40
12815;DHT22;6472;52.328;13.070;2023-09-07T12:44:23;27.90;62.30
12815;DHT22;6472;52.328;13.070;2023-09-07T12:46:51;27.90;62.70
12815;DHT22;6472;52.328;13.070;2023-09-07T12:49:20;27.90;61.80
12815;DHT22;6472;52.328;13.070;2023-09-07T12:51:48;27.90;62.30
12815;DHT22;6472;52.328;13.070;2023-09-07T12:54:16;28.00;61.00
12815;DHT22;6472;52.328;13.070;2023-09-07T12:56:44;28.00;61.50
12815;DHT22;6472;52.328;13.070;2023-09-07T12:59:13;28.10;64.20
12815;DHT22;6472;52.328;13.070;2023-09-07T13:01:41;28.10;61.50
12815;DHT22;6472;52.328;13.070;2023-09-07T13:04:09;28.20;61.10
12815;DHT22;6472;52.328;13.070;2023-09-07T13:06:39;28.20;59.90
12815;DHT22;6472;52.328;13.070;2023-09-07T13:09:07;28.30;60.20
12815;DHT22;6472;52.328;13.070;2023-09-07T13:11:36;28.20;60.00
12815;DHT22;6472;52.328;13.070;2023-09-07T13:14:06;28.20;59.30
12815;DHT22;6472;52.328;13.070;2023-09-07T13:16:38;28.40;58.00
12815;DHT22;6472;52.328;13.070;2023-09-07T13:19:06;28.50;59.00
12815;DHT22;6472;52.328;13.070;2023-09-07T13:21:34;28.60;60.80
12815;DHT22;6472;52.328;13.070;2023-09-07T13:24:04;28.70;57.90
12815;DHT22;6472;52.328;13.070;2023-09-07T13:26:32;28.70;57.40
12815;DHT22;6472;52.328;13.070;2023-09-07T13:29:01;28.80;57.50
12815;DHT22;6472;52.328;13.070;2023-09-07T13:31:32;28.90;57.70
12815;DHT22;6472;52.328;13.070;2023-09-07T13:34:00;28.90;58.10
12815;DHT22;6472;52.328;13.070;2023-09-07T13:36:28;28.90;57.80
12815;DHT22;6472;52.328;13.070;2023-09-07T13:38:56;28.80;57.70
12815;DHT22;6472;52.328;13.070;2023-09-07T13:41:25;28.60;58.40
12815;DHT22;6472;52.328;13.070;2023-09-07T13:43:53;28.60;58.10
12815;DHT22;6472;52.328;13.070;2023-09-07T13:46:21;28.70;58.00
12815;DHT22;6472;52.328;13.070;2023-09-07T13:48:50;28.60;58.60
12815;DHT22;6472;52.328;13.070;2023-09-07T13:51:18;28.70;57.60
12815;DHT22;6472;52.328;13.070;2023-09-07T13:53:46;28.80;57.50
12815;DHT22;6472;52.328;13.070;2023-09-07T13:56:17;28.70;59.40
12815;DHT22;6472;52.328;13.070;2023-09-07T13:58:47;28.60;57.30
12815;DHT22;6472;52.328;13.070;2023-09-07T14:01:15;28.60;57.70
12815;DHT22;6472;52.328;13.070;2023-09-07T14:03:43;28.60;57.60
12815;DHT22;6472;52.328;13.070;2023-09-07T14:06:11;28.70;56.60
12815;DHT22;6472;52.328;13.070;2023-09-07T14:08:39;28.60;56.00
12815;DHT22;6472;52.328;13.070;2023-09-07T14:11:07;28.50;56.00
12815;DHT22;6472;52.328;13.070;2023-09-07T14:13:35;28.30;57.30
12815;DHT22;6472;52.328;13.070;2023-09-07T14:16:04;28.10;57.20
12815;DHT22;6472;52.328;13.070;2023-09-07T14:18:41;28.10;58.00
12815;DHT22;6472;52.328;13.070;2023-09-07T14:21:12;28.10;58.00
12815;DHT22;6472;52.328;13.070;2023-09-07T14:23:40;28.10;58.00
12815;DHT22;6472;52.328;13.070;2023-09-07T14:26:09;28.20;58.90
12815;DHT22;6472;52.328;13.070;2023-09-07T14:28:37;28.10;59.50
12815;DHT22;6472;52.328;13.070;2023-09-07T14:31:07;28.00;59.00
12815;DHT22;6472;52.328;13.070;2023-09-07T14:33:36;28.10;58.20
12815;DHT22;6472;52.328;13.070;2023-09-07T14:36:06;28.20;58.10
12815;DHT22;6472;52.328;13.070;2023-09-07T14:38:35;28.20;58.90
12815;DHT22;6472;52.328;13.070;2023-09-07T14:41:07;28.00;59.90
12815;DHT22;6472;52.328;13.070;2023-09-07T14:43:38;28.10;60.90
12815;DHT22;6472;52.328;13.070;2023-09-07T14:46:07;28.00;60.30
12815;DHT22;6472;52.328;13.070;2023-09-07T14:48:36;28.10;59.90
12815;DHT22;6472;52.328;13.070;2023-09-07T14:51:04;28.20;59.40
12815;DHT22;6472;52.328;13.070;2023-09-07T14:53:32;28.00;58.50
12815;DHT22;6472;52.328;13.070;2023-09-07T14:56:01;28.00;59.30
12815;DHT22;6472;52.328;13.070;2023-09-07T14:58:29;28.10;59.40
12815;DHT22;6472;52.328;13.070;2023-09-07T15:00:58;28.00;58.80
12815;DHT22;6472;52.328;13.070;2023-09-07T15:03:27;28.00;58.70
12815;DHT22;6472;52.328;13.070;2023-09-07T15:05:56;28.00;59.00
12815;DHT22;6472;52.328;13.070;2023-09-07T15:08:24;28.00;59.50
12815;DHT22;6472;52.328;13.070;2023-09-07T15:10:52;28.00;59.40
12815;DHT22;6472;52.328;13.070;2023-09-07T15:13:20;28.00;58.60
12815;DHT22;6472;52.328;13.070;2023-09-07T15:15:48;28.00;57.80
12815;DHT22;6472;52.328;13.070;2023-09-07T15:18:16;27.90;58.20
12815;DHT22;6472;52.328;13.070;2023-09-07T15:20:46;27.80;58.90
12815;DHT22;6472;52.328;13.070;2023-09-07T15:23:14;27.80;60.60
12815;DHT22;6472;52.328;13.070;2023-09-07T15:25:42;27.70;59.70
12815;DHT22;6472;52.328;13.070;2023-09-07T15:28:10;27.70;59.70
12815;DHT22;6472;52.328;13.070;2023-09-07T15:30:38;27.80;58.20
12815;DHT22;6472;52.328;13.070;2023-09-07T15:33:06;27.80;59.10
12815;DHT22;6472;52.328;13.070;2023-09-07T15:35:34;27.80;58.70
12815;DHT22;6472;52.328;13.070;2023-09-07T15:38:04;27.80;58.90
12815;DHT22;6472;52.328;13.070;2023-09-07T15:40:32;27.70;60.00